sensor_id;sensor_type;location;lat;lon;timestamp;P1;durP1;ratioP1;P2;durP2;ratioP2
63038;SDS011;49125;48.812;9.206;2022-09-23T00:01:00;14.17;;;12.67;;
63038;SDS011;49125;48.812;9.206;2022-09-23T00:03:28;14.57;;;12.77;;
63038;SDS011;49125;48.812;9.206;2022-09-23T00:06:02;15.87;;;12.63;;
63038;SDS011;49125;48.812;9.206;2022-09-23T00:08:29;16.53;;;13.37;;
63038;SDS011;49125;48.812;9.206;2022-09-23T00:10:56;15.13;;;13.63;;
63038;SDS011;49125;48.812;9.206;2022-09-23T00:13:28;18.13;;;12.93;;
63038;SDS011;49125;48.812;9.206;2022-09-23T00:15:54;16.43;;;13.73;;
63038;SDS011;49125;48.812;9.206;2022-09-23T00:18:19;16.53;;;14.00;;
63038;SDS011;49125;48.812;9.206;2022-09-23T00:20:45;16.80;;;13.13;;
63038;SDS011;49125;48.812;9.206;2022-09-23T00:23:10;15.43;;;13.63;;
63038;SDS011;49125;48.812;9.206;2022-09-23T00:25:36;16.43;;;13.17;;
63038;SDS011;49125;48.812;9.206;2022-09-23T00:28:02;17.80;;;13.70;;
63038;SDS011;49125;48.812;9.206;2022-09-23T00:30:28;13.67;;;12.10;;
63038;SDS011;49125;48.812;9.206;2022-09-23T00:32:53;15.20;;;12.23;;
63038;SDS011;49125;48.812;9.206;2022-09-23T00:35:20;12.77;;;10.40;;
63038;SDS011;49125;48.812;9.206;2022-09-23T00:37:46;12.97;;;11.60;;
63038;SDS011;49125;48.812;9.206;2022-09-23T00:40:12;14.57;;;10.60;;
63038;SDS011;49125;48.812;9.206;2022-09-23T00:42:43;11.50;;;10.30;;
63038;SDS011;49125;48.812;9.206;2022-09-23T00:45:11;16.97;;;10.30;;
63038;SDS011;49125;48.812;9.206;2022-09-23T00:53:00;14.37;;;10.80;;
63038;SDS011;49125;48.812;9.206;2022-09-23T00:55:33;13.60;;;11.03;;
63038;SDS011;49125;48.812;9.206;2022-09-23T00:58:04;12.17;;;10.97;;
63038;SDS011;49125;48.812;9.206;2022-09-23T01:00:35;11.70;;;10.50;;
63038;SDS011;49125;48.812;9.206;2022-09-23T01:03:00;13.33;;;11.63;;
63038;SDS011;49125;48.812;9.206;2022-09-23T01:05:28;13.67;;;12.00;;
63038;SDS011;49125;48.812;9.206;2022-09-23T01:07:54;14.30;;;10.70;;
63038;SDS011;49125;48.812;9.206;2022-09-23T01:10:22;11.87;;;10.53;;
63038;SDS011;49125;48.812;9.206;2022-09-23T01:15:47;15.00;;;12.47;;
63038;SDS011;49125;48.812;9.206;2022-09-23T01:24:31;14.17;;;11.00;;
63038;SDS011;49125;48.812;9.206;2022-09-23T01:29:59;13.80;;;11.93;;
63038;SDS011;49125;48.812;9.206;2022-09-23T01:35:22;12.63;;;11.20;;
63038;SDS011;49125;48.812;9.206;2022-09-23T01:37:55;12.97;;;11.43;;
63038;SDS011;49125;48.812;9.206;2022-09-23T01:43:24;12.43;;;11.13;;
63038;SDS011;49125;48.812;9.206;2022-09-23T01:46:02;15.87;;;11.37;;
63038;SDS011;49125;48.812;9.206;2022-09-23T01:48:35;13.10;;;10.87;;
63038;SDS011;49125;48.812;9.206;2022-09-23T01:51:12;12.53;;;11.20;;
63038;SDS011;49125;48.812;9.206;2022-09-23T01:56:35;13.00;;;11.50;;
63038;SDS011;49125;48.812;9.206;2022-09-23T01:59:07;11.83;;;10.50;;
63038;SDS011;49125;48.812;9.206;2022-09-23T02:01:44;12.90;;;11.60;;
63038;SDS011;49125;48.812;9.206;2022-09-23T02:04:21;14.60;;;10.90;;
63038;SDS011;49125;48.812;9.206;2022-09-23T02:06:55;12.57;;;11.20;;
63038;SDS011;49125;48.812;9.206;2022-09-23T02:09:32;12.30;;;11.03;;
63038;SDS011;49125;48.812;9.206;2022-09-23T02:12:02;13.30;;;11.70;;
63038;SDS011;49125;48.812;9.206;2022-09-23T02:14:35;12.33;;;10.90;;
63038;SDS011;49125;48.812;9.206;2022-09-23T02:17:08;15.33;;;11.20;;
63038;SDS011;49125;48.812;9.206;2022-09-23T02:19:47;12.70;;;11.40;;
63038;SDS011;49125;48.812;9.206;2022-09-23T02:22:28;15.77;;;12.23;;
63038;SDS011;49125;48.812;9.206;2022-09-23T02:25:03;12.87;;;11.23;;
63038;SDS011;49125;48.812;9.206;2022-09-23T02:27:41;16.73;;;12.27;;
63038;SDS011;49125;48.812;9.206;2022-09-23T02:30:27;12.57;;;10.70;;
63038;SDS011;49125;48.812;9.206;2022-09-23T02:33:16;15.57;;;10.67;;
63038;SDS011;49125;48.812;9.206;2022-09-23T02:35:47;16.10;;;12.10;;
63038;SDS011;49125;48.812;9.206;2022-09-23T02:38:37;13.00;;;10.67;;
63038;SDS011;49125;48.812;9.206;2022-09-23T02:43:59;15.47;;;12.17;;
63038;SDS011;49125;48.812;9.206;2022-09-23T02:46:31;14.17;;;12.40;;
63038;SDS011;49125;48.812;9.206;2022-09-23T02:48:59;15.23;;;13.40;;
63038;SDS011;49125;48.812;9.206;2022-09-23T02:51:35;14.07;;;12.03;;
63038;SDS011;49125;48.812;9.206;2022-09-23T02:54:02;13.63;;;12.07;;
63038;SDS011;49125;48.812;9.206;2022-09-23T02:56:31;16.53;;;12.33;;
63038;SDS011;49125;48.812;9.206;2022-09-23T02:58:57;14.57;;;11.83;;
63038;SDS011;49125;48.812;9.206;2022-09-23T03:04:06;14.17;;;11.10;;
63038;SDS011;49125;48.812;9.206;2022-09-23T03:15:21;13.87;;;11.17;;
63038;SDS011;49125;48.812;9.206;2022-09-23T03:17:55;15.57;;;12.37;;
63038;SDS011;49125;48.812;9.206;2022-09-23T03:23:13;14.37;;;12.70;;
63038;SDS011;49125;48.812;9.206;2022-09-23T03:25:43;12.60;;;11.27;;
63038;SDS011;49125;48.812;9.206;2022-09-23T03:28:12;13.60;;;12.20;;
63038;SDS011;49125;48.812;9.206;2022-09-23T03:30:41;15.73;;;12.73;;
63038;SDS011;49125;48.812;9.206;2022-09-23T03:33:08;15.10;;;13.30;;
63038;SDS011;49125;48.812;9.206;2022-09-23T03:35:37;14.13;;;12.40;;
63038;SDS011;49125;48.812;9.206;2022-09-23T03:38:28;15.03;;;11.60;;
63038;SDS011;49125;48.812;9.206;2022-09-23T03:40:59;15.77;;;13.77;;
63038;SDS011;49125;48.812;9.206;2022-09-23T03:43:28;16.77;;;13.40;;
63038;SDS011;49125;48.812;9.206;2022-09-23T03:45:55;14.70;;;13.20;;
63038;SDS011;49125;48.812;9.206;2022-09-23T03:48:22;15.67;;;13.20;;
63038;SDS011;49125;48.812;9.206;2022-09-23T03:50:48;15.63;;;14.03;;
63038;SDS011;49125;48.812;9.206;2022-09-23T03:53:14;15.33;;;12.10;;
63038;SDS011;49125;48.812;9.206;2022-09-23T03:55:41;12.83;;;11.33;;
63038;SDS011;49125;48.812;9.206;2022-09-23T03:58:08;14.30;;;12.87;;
63038;SDS011;49125;48.812;9.206;2022-09-23T04:00:33;14.87;;;12.57;;
63038;SDS011;49125;48.812;9.206;2022-09-23T04:03:00;16.63;;;14.47;;
63038;SDS011;49125;48.812;9.206;2022-09-23T04:05:25;15.97;;;12.83;;
63038;SDS011;49125;48.812;9.206;2022-09-23T04:07:51;16.20;;;13.70;;
63038;SDS011;49125;48.812;9.206;2022-09-23T04:10:17;16.47;;;13.87;;
63038;SDS011;49125;48.812;9.206;2022-09-23T04:12:42;15.27;;;13.57;;
63038;SDS011;49125;48.812;9.206;2022-09-23T04:15:08;15.93;;;13.50;;
63038;SDS011;49125;48.812;9.206;2022-09-23T04:17:34;16.07;;;14.40;;
63038;SDS011;49125;48.812;9.206;2022-09-23T04:19:59;17.03;;;12.80;;
63038;SDS011;49125;48.812;9.206;2022-09-23T04:22:25;14.73;;;13.23;;
63038;SDS011;49125;48.812;9.206;2022-09-23T04:24:51;15.87;;;14.13;;
63038;SDS011;49125;48.812;9.206;2022-09-23T04:27:16;17.47;;;14.90;;
63038;SDS011;49125;48.812;9.206;2022-09-23T04:29:42;17.33;;;14.53;;
63038;SDS011;49125;48.812;9.206;2022-09-23T04:32:07;15.87;;;13.23;;
63038;SDS011;49125;48.812;9.206;2022-09-23T04:34:33;16.47;;;13.40;;
63038;SDS011;49125;48.812;9.206;2022-09-23T04:36:58;16.67;;;12.87;;
63038;SDS011;49125;48.812;9.206;2022-09-23T04:39:24;16.33;;;13.47;;
63038;SDS011;49125;48.812;9.206;2022-09-23T04:41:49;14.80;;;11.50;;
63038;SDS011;49125;48.812;9.206;2022-09-23T04:44:15;16.07;;;12.43;;
63038;SDS011;49125;48.812;9.206;2022-09-23T04:46:41;13.77;;;12.27;;
63038;SDS011;49125;48.812;9.206;2022-09-23T04:49:12;13.53;;;12.13;;
63038;SDS011;49125;48.812;9.206;2022-09-23T04:51:38;12.90;;;11.57;;
63038;SDS011;49125;48.812;9.206;2022-09-23T04:54:07;11.53;;;10.43;;
63038;SDS011;49125;48.812;9.206;2022-09-23T04:56:33;12.87;;;10.77;;
63038;SDS011;49125;48.812;9.206;2022-09-23T04:58:59;16.90;;;11.63;;
63038;SDS011;49125;48.812;9.206;2022-09-23T05:01:29;12.37;;;11.07;;
63038;SDS011;49125;48.812;9.206;2022-09-23T05:03:56;11.60;;;10.33;;
63038;SDS011;49125;48.812;9.206;2022-09-23T05:06:26;11.77;;;10.67;;
63038;SDS011;49125;48.812;9.206;2022-09-23T05:08:53;13.33;;;10.57;;
63038;SDS011;49125;48.812;9.206;2022-09-23T05:11:20;11.97;;;10.77;;
63038;SDS011;49125;48.812;9.206;2022-09-23T05:13:46;16.73;;;11.40;;
63038;SDS011;49125;48.812;9.206;2022-09-23T05:16:13;15.73;;;12.70;;
63038;SDS011;49125;48.812;9.206;2022-09-23T05:18:40;15.47;;;14.03;;
63038;SDS011;49125;48.812;9.206;2022-09-23T05:21:08;14.57;;;13.17;;
63038;SDS011;49125;48.812;9.206;2022-09-23T05:23:35;15.67;;;12.53;;
63038;SDS011;49125;48.812;9.206;2022-09-23T05:26:02;13.33;;;11.93;;
63038;SDS011;49125;48.812;9.206;2022-09-23T05:28:30;18.57;;;12.03;;
63038;SDS011;49125;48.812;9.206;2022-09-23T05:31:06;15.63;;;12.47;;
63038;SDS011;49125;48.812;9.206;2022-09-23T05:33:34;15.73;;;12.00;;
63038;SDS011;49125;48.812;9.206;2022-09-23T05:36:00;15.47;;;12.17;;
63038;SDS011;49125;48.812;9.206;2022-09-23T05:38:27;17.30;;;12.83;;
63038;SDS011;49125;48.812;9.206;2022-09-23T05:40:54;13.93;;;12.27;;
63038;SDS011;49125;48.812;9.206;2022-09-23T05:43:23;15.70;;;13.20;;
63038;SDS011;49125;48.812;9.206;2022-09-23T05:45:50;18.03;;;13.33;;
63038;SDS011;49125;48.812;9.206;2022-09-23T05:48:16;15.70;;;11.50;;
63038;SDS011;49125;48.812;9.206;2022-09-23T05:50:48;17.27;;;11.80;;
63038;SDS011;49125;48.812;9.206;2022-09-23T05:53:17;17.57;;;11.50;;
63038;SDS011;49125;48.812;9.206;2022-09-23T05:55:43;14.40;;;11.50;;
63038;SDS011;49125;48.812;9.206;2022-09-23T05:58:10;16.03;;;11.23;;
63038;SDS011;49125;48.812;9.206;2022-09-23T06:00:38;14.60;;;11.60;;
63038;SDS011;49125;48.812;9.206;2022-09-23T06:03:05;16.93;;;11.50;;
63038;SDS011;49125;48.812;9.206;2022-09-23T06:05:31;18.67;;;11.17;;
63038;SDS011;49125;48.812;9.206;2022-09-23T06:07:56;21.83;;;10.10;;
63038;SDS011;49125;48.812;9.206;2022-09-23T06:10:22;19.13;;;10.70;;
63038;SDS011;49125;48.812;9.206;2022-09-23T06:12:47;25.37;;;10.90;;
63038;SDS011;49125;48.812;9.206;2022-09-23T06:15:14;22.73;;;10.53;;
63038;SDS011;49125;48.812;9.206;2022-09-23T06:17:39;16.73;;;9.50;;
63038;SDS011;49125;48.812;9.206;2022-09-23T06:20:05;13.27;;;9.63;;
63038;SDS011;49125;48.812;9.206;2022-09-23T06:22:31;13.13;;;9.77;;
63038;SDS011;49125;48.812;9.206;2022-09-23T06:24:57;12.27;;;9.70;;
63038;SDS011;49125;48.812;9.206;2022-09-23T06:27:22;10.07;;;8.90;;
63038;SDS011;49125;48.812;9.206;2022-09-23T06:29:48;13.40;;;9.30;;
63038;SDS011;49125;48.812;9.206;2022-09-23T06:32:16;17.20;;;9.33;;
63038;SDS011;49125;48.812;9.206;2022-09-23T06:34:43;12.23;;;8.50;;
63038;SDS011;49125;48.812;9.206;2022-09-23T06:37:09;11.70;;;9.03;;
63038;SDS011;49125;48.812;9.206;2022-09-23T06:39:35;11.90;;;9.63;;
63038;SDS011;49125;48.812;9.206;2022-09-23T06:42:01;11.97;;;9.43;;
63038;SDS011;49125;48.812;9.206;2022-09-23T06:44:27;11.40;;;9.07;;
63038;SDS011;49125;48.812;9.206;2022-09-23T06:46:52;11.70;;;8.73;;
63038;SDS011;49125;48.812;9.206;2022-09-23T06:49:18;13.73;;;8.87;;
63038;SDS011;49125;48.812;9.206;2022-09-23T06:51:46;13.53;;;9.90;;
63038;SDS011;49125;48.812;9.206;2022-09-23T06:54:12;16.43;;;8.90;;
63038;SDS011;49125;48.812;9.206;2022-09-23T06:56:38;11.40;;;8.43;;
63038;SDS011;49125;48.812;9.206;2022-09-23T06:59:03;12.77;;;9.47;;
63038;SDS011;49125;48.812;9.206;2022-09-23T07:01:30;10.90;;;8.60;;
63038;SDS011;49125;48.812;9.206;2022-09-23T07:03:55;12.30;;;8.80;;
63038;SDS011;49125;48.812;9.206;2022-09-23T07:06:21;9.10;;;7.73;;
63038;SDS011;49125;48.812;9.206;2022-09-23T07:08:47;11.40;;;8.17;;
63038;SDS011;49125;48.812;9.206;2022-09-23T07:11:12;14.03;;;8.27;;
63038;SDS011;49125;48.812;9.206;2022-09-23T07:13:39;12.10;;;8.20;;
63038;SDS011;49125;48.812;9.206;2022-09-23T07:16:06;9.73;;;7.70;;
63038;SDS011;49125;48.812;9.206;2022-09-23T07:18:32;11.47;;;7.33;;
63038;SDS011;49125;48.812;9.206;2022-09-23T07:21:34;11.67;;;7.73;;
63038;SDS011;49125;48.812;9.206;2022-09-23T07:23:52;9.13;;;7.50;;
63038;SDS011;49125;48.812;9.206;2022-09-23T07:26:19;11.83;;;7.30;;
63038;SDS011;49125;48.812;9.206;2022-09-23T07:28:44;8.10;;;7.07;;
63038;SDS011;49125;48.812;9.206;2022-09-23T07:31:14;8.83;;;6.53;;
63038;SDS011;49125;48.812;9.206;2022-09-23T07:33:41;7.17;;;6.43;;
63038;SDS011;49125;48.812;9.206;2022-09-23T07:36:12;9.20;;;6.67;;
63038;SDS011;49125;48.812;9.206;2022-09-23T07:38:41;9.07;;;6.67;;
63038;SDS011;49125;48.812;9.206;2022-09-23T07:41:08;6.53;;;5.77;;
63038;SDS011;49125;48.812;9.206;2022-09-23T07:43:34;7.43;;;6.63;;
63038;SDS011;49125;48.812;9.206;2022-09-23T07:46:03;6.90;;;6.00;;
63038;SDS011;49125;48.812;9.206;2022-09-23T07:48:32;7.60;;;5.80;;
63038;SDS011;49125;48.812;9.206;2022-09-23T07:50:58;7.53;;;6.10;;
63038;SDS011;49125;48.812;9.206;2022-09-23T07:53:24;6.70;;;5.20;;
63038;SDS011;49125;48.812;9.206;2022-09-23T07:55:54;6.23;;;5.63;;
63038;SDS011;49125;48.812;9.206;2022-09-23T07:58:20;6.10;;;5.50;;
63038;SDS011;49125;48.812;9.206;2022-09-23T08:00:47;9.33;;;5.83;;
63038;SDS011;49125;48.812;9.206;2022-09-23T08:03:17;7.20;;;5.90;;
63038;SDS011;49125;48.812;9.206;2022-09-23T08:05:43;7.57;;;5.47;;
63038;SDS011;49125;48.812;9.206;2022-09-23T08:08:10;6.60;;;5.37;;
63038;SDS011;49125;48.812;9.206;2022-09-23T08:10:38;6.70;;;5.40;;
63038;SDS011;49125;48.812;9.206;2022-09-23T08:13:03;6.57;;;5.57;;
63038;SDS011;49125;48.812;9.206;2022-09-23T08:15:29;8.30;;;5.53;;
63038;SDS011;49125;48.812;9.206;2022-09-23T08:17:58;8.27;;;5.27;;
63038;SDS011;49125;48.812;9.206;2022-09-23T08:20:24;8.37;;;5.40;;
63038;SDS011;49125;48.812;9.206;2022-09-23T08:23:09;5.93;;;4.77;;
63038;SDS011;49125;48.812;9.206;2022-09-23T08:25:38;7.67;;;5.67;;
63038;SDS011;49125;48.812;9.206;2022-09-23T08:28:04;8.47;;;6.00;;
63038;SDS011;49125;48.812;9.206;2022-09-23T08:30:30;7.60;;;5.40;;
63038;SDS011;49125;48.812;9.206;2022-09-23T08:32:56;5.57;;;4.60;;
63038;SDS011;49125;48.812;9.206;2022-09-23T08:35:21;10.37;;;6.00;;
63038;SDS011;49125;48.812;9.206;2022-09-23T08:37:47;8.23;;;5.67;;
63038;SDS011;49125;48.812;9.206;2022-09-23T08:40:12;9.77;;;5.47;;
63038;SDS011;49125;48.812;9.206;2022-09-23T08:42:39;9.60;;;5.33;;
63038;SDS011;49125;48.812;9.206;2022-09-23T08:45:09;6.03;;;5.43;;
63038;SDS011;49125;48.812;9.206;2022-09-23T08:50:49;9.93;;;5.27;;
63038;SDS011;49125;48.812;9.206;2022-09-23T08:53:23;13.33;;;5.20;;
63038;SDS011;49125;48.812;9.206;2022-09-23T08:55:50;8.20;;;4.90;;
63038;SDS011;49125;48.812;9.206;2022-09-23T08:58:23;11.73;;;5.53;;
63038;SDS011;49125;48.812;9.206;2022-09-23T09:04:04;6.23;;;5.63;;
63038;SDS011;49125;48.812;9.206;2022-09-23T09:07:33;6.32;;;5.57;;
63038;SDS011;49125;48.812;9.206;2022-09-23T09:12:08;7.68;;;5.25;;
63038;SDS011;49125;48.812;9.206;2022-09-23T09:14:56;7.13;;;4.95;;
63038;SDS011;49125;48.812;9.206;2022-09-23T09:22:56;8.55;;;4.68;;
63038;SDS011;49125;48.812;9.206;2022-09-23T09:31:00;7.25;;;4.70;;
63038;SDS011;49125;48.812;9.206;2022-09-23T09:33:29;7.60;;;5.15;;
63038;SDS011;49125;48.812;9.206;2022-09-23T09:38:54;6.82;;;4.70;;
63038;SDS011;49125;48.812;9.206;2022-09-23T09:41:24;7.07;;;4.25;;
63038;SDS011;49125;48.812;9.206;2022-09-23T09:43:52;5.32;;;4.82;;
63038;SDS011;49125;48.812;9.206;2022-09-23T09:46:38;7.07;;;4.97;;
63038;SDS011;49125;48.812;9.206;2022-09-23T09:49:35;9.50;;;5.15;;
63038;SDS011;49125;48.812;9.206;2022-09-23T09:52:10;7.38;;;5.07;;
63038;SDS011;49125;48.812;9.206;2022-09-23T09:54:37;9.20;;;6.20;;
63038;SDS011;49125;48.812;9.206;2022-09-23T09:57:04;10.68;;;6.03;;
63038;SDS011;49125;48.812;9.206;2022-09-23T09:59:35;7.45;;;5.20;;
63038;SDS011;49125;48.812;9.206;2022-09-23T10:05:04;6.80;;;4.78;;
63038;SDS011;49125;48.812;9.206;2022-09-23T10:07:32;6.47;;;4.35;;
63038;SDS011;49125;48.812;9.206;2022-09-23T10:10:10;6.45;;;4.72;;
63038;SDS011;49125;48.812;9.206;2022-09-23T10:12:48;6.35;;;4.80;;
63038;SDS011;49125;48.812;9.206;2022-09-23T10:18:19;5.15;;;4.15;;
63038;SDS011;49125;48.812;9.206;2022-09-23T10:21:10;4.72;;;4.28;;
63038;SDS011;49125;48.812;9.206;2022-09-23T10:23:44;5.68;;;4.57;;
63038;SDS011;49125;48.812;9.206;2022-09-23T10:26:25;7.60;;;4.15;;
63038;SDS011;49125;48.812;9.206;2022-09-23T10:28:56;7.47;;;4.32;;
63038;SDS011;49125;48.812;9.206;2022-09-23T10:31:29;8.30;;;4.80;;
63038;SDS011;49125;48.812;9.206;2022-09-23T10:34:02;5.38;;;4.88;;
63038;SDS011;49125;48.812;9.206;2022-09-23T10:37:02;6.63;;;4.85;;
63038;SDS011;49125;48.812;9.206;2022-09-23T10:39:37;6.95;;;4.65;;
63038;SDS011;49125;48.812;9.206;2022-09-23T10:45:46;6.88;;;4.20;;
63038;SDS011;49125;48.812;9.206;2022-09-23T10:56:38;7.95;;;4.25;;
63038;SDS011;49125;48.812;9.206;2022-09-23T11:07:39;4.43;;;4.00;;
63038;SDS011;49125;48.812;9.206;2022-09-23T11:13:41;8.50;;;3.75;;
63038;SDS011;49125;48.812;9.206;2022-09-23T11:18:59;5.20;;;3.70;;
63038;SDS011;49125;48.812;9.206;2022-09-23T11:22:13;6.43;;;3.70;;
63038;SDS011;49125;48.812;9.206;2022-09-23T11:25:16;6.88;;;3.53;;
63038;SDS011;49125;48.812;9.206;2022-09-23T11:30:17;5.22;;;3.60;;
63038;SDS011;49125;48.812;9.206;2022-09-23T11:32:59;5.65;;;3.78;;
63038;SDS011;49125;48.812;9.206;2022-09-23T11:35:38;5.63;;;3.28;;
63038;SDS011;49125;48.812;9.206;2022-09-23T11:38:30;5.75;;;3.53;;
63038;SDS011;49125;48.812;9.206;2022-09-23T11:41:05;3.53;;;3.05;;
63038;SDS011;49125;48.812;9.206;2022-09-23T11:43:45;3.60;;;3.30;;
63038;SDS011;49125;48.812;9.206;2022-09-23T11:46:27;5.32;;;3.60;;
63038;SDS011;49125;48.812;9.206;2022-09-23T11:49:04;4.25;;;3.25;;
63038;SDS011;49125;48.812;9.206;2022-09-23T11:51:47;4.60;;;3.05;;
63038;SDS011;49125;48.812;9.206;2022-09-23T11:54:44;4.35;;;3.92;;
63038;SDS011;49125;48.812;9.206;2022-09-23T11:57:33;4.32;;;3.25;;
63038;SDS011;49125;48.812;9.206;2022-09-23T12:00:19;5.75;;;3.20;;
63038;SDS011;49125;48.812;9.206;2022-09-23T12:05:40;5.20;;;3.33;;
63038;SDS011;49125;48.812;9.206;2022-09-23T12:08:14;3.97;;;3.50;;
63038;SDS011;49125;48.812;9.206;2022-09-23T12:24:45;6.05;;;3.88;;
63038;SDS011;49125;48.812;9.206;2022-09-23T12:27:34;4.68;;;4.28;;
63038;SDS011;49125;48.812;9.206;2022-09-23T12:30:04;4.82;;;3.53;;
63038;SDS011;49125;48.812;9.206;2022-09-23T12:32:42;5.90;;;4.70;;
63038;SDS011;49125;48.812;9.206;2022-09-23T12:35:29;7.15;;;4.00;;
63038;SDS011;49125;48.812;9.206;2022-09-23T12:38:01;4.13;;;3.83;;
63038;SDS011;49125;48.812;9.206;2022-09-23T12:40:36;5.65;;;4.15;;
63038;SDS011;49125;48.812;9.206;2022-09-23T12:43:14;6.82;;;4.28;;
63038;SDS011;49125;48.812;9.206;2022-09-23T12:45:41;9.18;;;3.90;;
63038;SDS011;49125;48.812;9.206;2022-09-23T12:50:47;4.97;;;4.10;;
63038;SDS011;49125;48.812;9.206;2022-09-23T12:56:16;4.88;;;4.22;;
63038;SDS011;49125;48.812;9.206;2022-09-23T13:01:19;5.25;;;4.78;;
63038;SDS011;49125;48.812;9.206;2022-09-23T13:03:53;5.80;;;4.22;;
63038;SDS011;49125;48.812;9.206;2022-09-23T13:06:40;4.78;;;4.30;;
63038;SDS011;49125;48.812;9.206;2022-09-23T13:09:07;4.63;;;4.22;;
63038;SDS011;49125;48.812;9.206;2022-09-23T13:11:39;4.40;;;3.92;;
63038;SDS011;49125;48.812;9.206;2022-09-23T13:14:08;10.75;;;4.30;;
63038;SDS011;49125;48.812;9.206;2022-09-23T13:16:40;6.60;;;4.03;;
63038;SDS011;49125;48.812;9.206;2022-09-23T13:26:54;5.63;;;4.70;;
63038;SDS011;49125;48.812;9.206;2022-09-23T13:29:36;5.55;;;4.97;;
63038;SDS011;49125;48.812;9.206;2022-09-23T13:32:10;5.60;;;4.65;;
63038;SDS011;49125;48.812;9.206;2022-09-23T13:34:38;5.00;;;4.20;;
63038;SDS011;49125;48.812;9.206;2022-09-23T13:40:24;5.38;;;4.72;;
63038;SDS011;49125;48.812;9.206;2022-09-23T13:45:24;4.60;;;4.20;;
63038;SDS011;49125;48.812;9.206;2022-09-23T13:47:52;7.63;;;4.60;;
63038;SDS011;49125;48.812;9.206;2022-09-23T13:50:22;8.20;;;4.70;;
63038;SDS011;49125;48.812;9.206;2022-09-23T13:52:52;5.80;;;5.30;;
63038;SDS011;49125;48.812;9.206;2022-09-23T13:55:27;6.10;;;4.65;;
63038;SDS011;49125;48.812;9.206;2022-09-23T13:58:02;5.07;;;3.80;;
63038;SDS011;49125;48.812;9.206;2022-09-23T14:00:36;5.13;;;3.75;;
63038;SDS011;49125;48.812;9.206;2022-09-23T14:03:14;4.53;;;4.00;;
63038;SDS011;49125;48.812;9.206;2022-09-23T14:05:48;5.03;;;4.13;;
63038;SDS011;49125;48.812;9.206;2022-09-23T14:08:14;4.28;;;3.35;;
63038;SDS011;49125;48.812;9.206;2022-09-23T14:10:40;10.27;;;4.55;;
63038;SDS011;49125;48.812;9.206;2022-09-23T14:13:22;8.05;;;4.75;;
63038;SDS011;49125;48.812;9.206;2022-09-23T14:15:59;6.03;;;4.30;;
63038;SDS011;49125;48.812;9.206;2022-09-23T14:18:32;4.93;;;4.13;;
63038;SDS011;49125;48.812;9.206;2022-09-23T14:21:00;4.30;;;3.90;;
63038;SDS011;49125;48.812;9.206;2022-09-23T14:23:26;6.70;;;4.53;;
63038;SDS011;49125;48.812;9.206;2022-09-23T14:25:51;4.57;;;4.18;;
63038;SDS011;49125;48.812;9.206;2022-09-23T14:28:19;6.95;;;4.30;;
63038;SDS011;49125;48.812;9.206;2022-09-23T14:30:47;8.38;;;4.13;;
63038;SDS011;49125;48.812;9.206;2022-09-23T14:33:22;5.00;;;3.83;;
63038;SDS011;49125;48.812;9.206;2022-09-23T14:35:55;4.13;;;3.65;;
63038;SDS011;49125;48.812;9.206;2022-09-23T14:38:27;4.28;;;3.30;;
63038;SDS011;49125;48.812;9.206;2022-09-23T14:41:22;4.75;;;3.33;;
63038;SDS011;49125;48.812;9.206;2022-09-23T14:43:59;4.57;;;3.75;;
63038;SDS011;49125;48.812;9.206;2022-09-23T14:46:27;4.40;;;3.97;;
63038;SDS011;49125;48.812;9.206;2022-09-23T14:49:13;5.88;;;4.10;;
63038;SDS011;49125;48.812;9.206;2022-09-23T14:51:43;5.18;;;3.85;;
63038;SDS011;49125;48.812;9.206;2022-09-23T14:54:28;4.60;;;3.92;;
63038;SDS011;49125;48.812;9.206;2022-09-23T14:56:54;3.63;;;3.30;;
63038;SDS011;49125;48.812;9.206;2022-09-23T14:59:33;7.82;;;3.65;;
63038;SDS011;49125;48.812;9.206;2022-09-23T15:02:01;5.78;;;4.20;;
63038;SDS011;49125;48.812;9.206;2022-09-23T15:04:48;6.43;;;3.30;;
63038;SDS011;49125;48.812;9.206;2022-09-23T15:07:15;4.30;;;3.53;;
63038;SDS011;49125;48.812;9.206;2022-09-23T15:09:44;4.43;;;3.67;;
63038;SDS011;49125;48.812;9.206;2022-09-23T15:12:16;8.52;;;4.55;;
63038;SDS011;49125;48.812;9.206;2022-09-23T15:14:48;6.72;;;4.20;;
63038;SDS011;49125;48.812;9.206;2022-09-23T15:19:51;4.68;;;3.90;;
63038;SDS011;49125;48.812;9.206;2022-09-23T15:22:20;5.65;;;3.90;;
63038;SDS011;49125;48.812;9.206;2022-09-23T15:24:47;4.40;;;4.00;;
63038;SDS011;49125;48.812;9.206;2022-09-23T15:27:26;4.53;;;3.92;;
63038;SDS011;49125;48.812;9.206;2022-09-23T15:32:41;6.97;;;3.80;;
63038;SDS011;49125;48.812;9.206;2022-09-23T15:35:11;5.65;;;4.05;;
63038;SDS011;49125;48.812;9.206;2022-09-23T15:37:39;6.85;;;4.28;;
63038;SDS011;49125;48.812;9.206;2022-09-23T15:40:13;6.00;;;3.90;;
63038;SDS011;49125;48.812;9.206;2022-09-23T15:42:44;6.35;;;3.83;;
63038;SDS011;49125;48.812;9.206;2022-09-23T15:45:11;6.18;;;3.97;;
63038;SDS011;49125;48.812;9.206;2022-09-23T15:47:36;8.48;;;6.90;;
63038;SDS011;49125;48.812;9.206;2022-09-23T15:50:03;5.38;;;4.80;;
63038;SDS011;49125;48.812;9.206;2022-09-23T15:52:31;5.88;;;4.18;;
63038;SDS011;49125;48.812;9.206;2022-09-23T15:54:56;6.80;;;4.55;;
63038;SDS011;49125;48.812;9.206;2022-09-23T15:57:22;5.47;;;4.22;;
63038;SDS011;49125;48.812;9.206;2022-09-23T15:59:49;6.28;;;4.45;;
63038;SDS011;49125;48.812;9.206;2022-09-23T16:02:18;6.45;;;4.53;;
63038;SDS011;49125;48.812;9.206;2022-09-23T16:04:47;7.45;;;5.30;;
63038;SDS011;49125;48.812;9.206;2022-09-23T16:07:16;7.07;;;4.50;;
63038;SDS011;49125;48.812;9.206;2022-09-23T16:09:44;6.65;;;5.18;;
63038;SDS011;49125;48.812;9.206;2022-09-23T16:12:10;7.32;;;5.55;;
63038;SDS011;49125;48.812;9.206;2022-09-23T16:14:36;6.82;;;5.90;;
63038;SDS011;49125;48.812;9.206;2022-09-23T16:17:01;5.15;;;4.28;;
63038;SDS011;49125;48.812;9.206;2022-09-23T16:19:28;7.15;;;5.57;;
63038;SDS011;49125;48.812;9.206;2022-09-23T16:21:58;7.55;;;3.72;;
63038;SDS011;49125;48.812;9.206;2022-09-23T16:24:23;5.78;;;5.05;;
63038;SDS011;49125;48.812;9.206;2022-09-23T16:26:49;4.45;;;3.88;;
63038;SDS011;49125;48.812;9.206;2022-09-23T16:29:15;3.97;;;3.67;;
63038;SDS011;49125;48.812;9.206;2022-09-23T16:31:40;5.88;;;3.97;;
63038;SDS011;49125;48.812;9.206;2022-09-23T16:34:06;3.97;;;3.35;;
63038;SDS011;49125;48.812;9.206;2022-09-23T16:36:37;4.30;;;3.60;;
63038;SDS011;49125;48.812;9.206;2022-09-23T16:39:05;6.75;;;3.97;;
63038;SDS011;49125;48.812;9.206;2022-09-23T16:41:34;7.95;;;3.83;;
63038;SDS011;49125;48.812;9.206;2022-09-23T16:44:00;5.72;;;3.88;;
63038;SDS011;49125;48.812;9.206;2022-09-23T16:46:29;4.63;;;3.90;;
63038;SDS011;49125;48.812;9.206;2022-09-23T16:48:55;4.10;;;3.60;;
63038;SDS011;49125;48.812;9.206;2022-09-23T16:51:23;5.38;;;3.75;;
63038;SDS011;49125;48.812;9.206;2022-09-23T16:54:01;4.80;;;3.85;;
63038;SDS011;49125;48.812;9.206;2022-09-23T16:56:30;10.18;;;4.22;;
63038;SDS011;49125;48.812;9.206;2022-09-23T16:58:56;5.90;;;3.78;;
63038;SDS011;49125;48.812;9.206;2022-09-23T17:01:22;6.55;;;3.95;;
63038;SDS011;49125;48.812;9.206;2022-09-23T17:04:08;4.68;;;4.10;;
63038;SDS011;49125;48.812;9.206;2022-09-23T17:06:35;7.20;;;4.60;;
63038;SDS011;49125;48.812;9.206;2022-09-23T17:09:06;6.32;;;4.82;;
63038;SDS011;49125;48.812;9.206;2022-09-23T17:11:31;10.40;;;4.75;;
63038;SDS011;49125;48.812;9.206;2022-09-23T17:13:57;8.48;;;4.75;;
63038;SDS011;49125;48.812;9.206;2022-09-23T17:16:28;11.50;;;7.38;;
63038;SDS011;49125;48.812;9.206;2022-09-23T17:18:55;18.63;;;12.38;;
63038;SDS011;49125;48.812;9.206;2022-09-23T17:21:22;67.22;;;45.97;;